sensor_id;sensor_type;location;lat;lon;timestamp;P1;durP1;ratioP1;P2;durP2;ratioP2
69795;SDS011;57073;45.650;9.612;2024-03-25T00:02:28;0.80;;;0.20;;
69795;SDS011;57073;45.650;9.612;2024-03-25T00:07:28;0.95;;;0.30;;
69795;SDS011;57073;45.650;9.612;2024-03-25T00:12:29;0.90;;;0.30;;
69795;SDS011;57073;45.650;9.612;2024-03-25T00:17:29;2.20;;;0.20;;
69795;SDS011;57073;45.650;9.612;2024-03-25T00:22:29;0.50;;;0.10;;
69795;SDS011;57073;45.650;9.612;2024-03-25T00:27:30;1.15;;;0.30;;
69795;SDS011;57073;45.650;9.612;2024-03-25T00:32:30;0.50;;;0.10;;
69795;SDS011;57073;45.650;9.612;2024-03-25T00:37:30;0.60;;;0.10;;
69795;SDS011;57073;45.650;9.612;2024-03-25T00:42:31;1.13;;;0.10;;
69795;SDS011;57073;45.650;9.612;2024-03-25T00:47:31;1.20;;;0.30;;
69795;SDS011;57073;45.650;9.612;2024-03-25T00:52:32;0.83;;;0.20;;
69795;SDS011;57073;45.650;9.612;2024-03-25T00:57:32;1.60;;;0.20;;
69795;SDS011;57073;45.650;9.612;2024-03-25T01:02:33;1.40;;;0.35;;
69795;SDS011;57073;45.650;9.612;2024-03-25T01:07:33;0.60;;;0.10;;
69795;SDS011;57073;45.650;9.612;2024-03-25T01:12:33;1.17;;;0.10;;
69795;SDS011;57073;45.650;9.612;2024-03-25T01:17:33;0.55;;;0.08;;
69795;SDS011;57073;45.650;9.612;2024-03-25T01:22:34;0.40;;;0.00;;
69795;SDS011;57073;45.650;9.612;2024-03-25T01:27:34;1.27;;;0.40;;
69795;SDS011;57073;45.650;9.612;2024-03-25T01:32:34;1.20;;;0.67;;
69795;SDS011;57073;45.650;9.612;2024-03-25T01:37:35;0.70;;;0.10;;
69795;SDS011;57073;45.650;9.612;2024-03-25T01:42:36;0.90;;;0.40;;
69795;SDS011;57073;45.650;9.612;2024-03-25T01:47:36;1.17;;;0.20;;
69795;SDS011;57073;45.650;9.612;2024-03-25T01:52:39;0.80;;;0.15;;
69795;SDS011;57073;45.650;9.612;2024-03-25T01:57:40;0.70;;;0.20;;
69795;SDS011;57073;45.650;9.612;2024-03-25T02:02:40;0.63;;;0.17;;
69795;SDS011;57073;45.650;9.612;2024-03-25T02:07:44;0.87;;;0.13;;
69795;SDS011;57073;45.650;9.612;2024-03-25T02:12:45;0.70;;;0.10;;
69795;SDS011;57073;45.650;9.612;2024-03-25T02:17:46;0.68;;;0.10;;
69795;SDS011;57073;45.650;9.612;2024-03-25T02:22:47;0.50;;;0.00;;
69795;SDS011;57073;45.650;9.612;2024-03-25T02:27:47;0.40;;;0.00;;
69795;SDS011;57073;45.650;9.612;2024-03-25T02:32:47;1.35;;;0.20;;
69795;SDS011;57073;45.650;9.612;2024-03-25T02:37:48;1.43;;;0.20;;
69795;SDS011;57073;45.650;9.612;2024-03-25T02:42:51;1.08;;;0.20;;
69795;SDS011;57073;45.650;9.612;2024-03-25T02:47:52;0.83;;;0.10;;
69795;SDS011;57073;45.650;9.612;2024-03-25T02:52:53;1.00;;;0.10;;
69795;SDS011;57073;45.650;9.612;2024-03-25T02:57:53;1.93;;;0.30;;
69795;SDS011;57073;45.650;9.612;2024-03-25T03:02:53;0.70;;;0.20;;
69795;SDS011;57073;45.650;9.612;2024-03-25T03:07:54;0.60;;;0.22;;
69795;SDS011;57073;45.650;9.612;2024-03-25T03:12:54;0.67;;;0.27;;
69795;SDS011;57073;45.650;9.612;2024-03-25T03:17:54;1.23;;;0.30;;
69795;SDS011;57073;45.650;9.612;2024-03-25T03:22:55;1.40;;;0.13;;
69795;SDS011;57073;45.650;9.612;2024-03-25T03:27:55;0.65;;;0.10;;
69795;SDS011;57073;45.650;9.612;2024-03-25T03:32:56;0.70;;;0.13;;
69795;SDS011;57073;45.650;9.612;2024-03-25T03:37:56;0.77;;;0.17;;
69795;SDS011;57073;45.650;9.612;2024-03-25T03:42:56;1.33;;;0.20;;
69795;SDS011;57073;45.650;9.612;2024-03-25T03:47:57;1.67;;;0.28;;
69795;SDS011;57073;45.650;9.612;2024-03-25T03:52:57;1.07;;;0.10;;
69795;SDS011;57073;45.650;9.612;2024-03-25T03:57:57;1.07;;;0.10;;
69795;SDS011;57073;45.650;9.612;2024-03-25T04:02:58;1.20;;;0.10;;
69795;SDS011;57073;45.650;9.612;2024-03-25T04:07:58;0.30;;;0.00;;
69795;SDS011;57073;45.650;9.612;2024-03-25T04:12:58;1.75;;;0.20;;
69795;SDS011;57073;45.650;9.612;2024-03-25T04:17:59;0.70;;;0.20;;
69795;SDS011;57073;45.650;9.612;2024-03-25T04:22:59;0.63;;;0.00;;
69795;SDS011;57073;45.650;9.612;2024-03-25T04:27:59;1.93;;;0.30;;
69795;SDS011;57073;45.650;9.612;2024-03-25T04:33:00;0.97;;;0.20;;
69795;SDS011;57073;45.650;9.612;2024-03-25T04:38:00;1.02;;;0.10;;
69795;SDS011;57073;45.650;9.612;2024-03-25T04:43:01;0.83;;;0.10;;
69795;SDS011;57073;45.650;9.612;2024-03-25T04:48:02;0.60;;;0.20;;
69795;SDS011;57073;45.650;9.612;2024-03-25T04:53:03;0.90;;;0.20;;
69795;SDS011;57073;45.650;9.612;2024-03-25T04:58:03;0.60;;;0.20;;
69795;SDS011;57073;45.650;9.612;2024-03-25T05:03:04;0.90;;;0.20;;
69795;SDS011;57073;45.650;9.612;2024-03-25T05:08:05;0.83;;;0.10;;
69795;SDS011;57073;45.650;9.612;2024-03-25T05:13:05;1.05;;;0.20;;
69795;SDS011;57073;45.650;9.612;2024-03-25T05:18:06;1.95;;;0.10;;
69795;SDS011;57073;45.650;9.612;2024-03-25T05:23:06;0.70;;;0.20;;
69795;SDS011;57073;45.650;9.612;2024-03-25T05:28:07;0.60;;;0.10;;
69795;SDS011;57073;45.650;9.612;2024-03-25T05:33:07;1.03;;;0.10;;
69795;SDS011;57073;45.650;9.612;2024-03-25T05:38:08;1.70;;;0.40;;
69795;SDS011;57073;45.650;9.612;2024-03-25T05:43:08;2.47;;;0.33;;
69795;SDS011;57073;45.650;9.612;2024-03-25T05:48:08;2.17;;;0.30;;
69795;SDS011;57073;45.650;9.612;2024-03-25T05:53:09;2.42;;;0.45;;
69795;SDS011;57073;45.650;9.612;2024-03-25T05:58:09;3.22;;;0.20;;
69795;SDS011;57073;45.650;9.612;2024-03-25T06:03:09;0.90;;;0.30;;
69795;SDS011;57073;45.650;9.612;2024-03-25T06:08:10;2.90;;;0.30;;
69795;SDS011;57073;45.650;9.612;2024-03-25T06:13:20;2.78;;;0.30;;
69795;SDS011;57073;45.650;9.612;2024-03-25T06:18:20;2.43;;;0.40;;
69795;SDS011;57073;45.650;9.612;2024-03-25T06:23:25;2.13;;;0.20;;
69795;SDS011;57073;45.650;9.612;2024-03-25T06:28:26;3.75;;;0.47;;
69795;SDS011;57073;45.650;9.612;2024-03-25T06:33:26;3.17;;;0.30;;
69795;SDS011;57073;45.650;9.612;2024-03-25T06:38:45;2.00;;;0.70;;
69795;SDS011;57073;45.650;9.612;2024-03-25T06:43:45;2.20;;;0.57;;
69795;SDS011;57073;45.650;9.612;2024-03-25T06:48:46;2.25;;;0.20;;
69795;SDS011;57073;45.650;9.612;2024-03-25T06:53:46;1.57;;;0.10;;
69795;SDS011;57073;45.650;9.612;2024-03-25T06:58:47;3.15;;;0.43;;
69795;SDS011;57073;45.650;9.612;2024-03-25T07:03:47;3.95;;;0.20;;
69795;SDS011;57073;45.650;9.612;2024-03-25T07:08:48;0.80;;;0.30;;
69795;SDS011;57073;45.650;9.612;2024-03-25T07:13:48;2.50;;;0.30;;
69795;SDS011;57073;45.650;9.612;2024-03-25T07:18:48;4.07;;;0.40;;
69795;SDS011;57073;45.650;9.612;2024-03-25T07:23:48;0.55;;;0.15;;
69795;SDS011;57073;45.650;9.612;2024-03-25T07:28:49;1.15;;;0.30;;
69795;SDS011;57073;45.650;9.612;2024-03-25T07:33:49;2.63;;;0.40;;
69795;SDS011;57073;45.650;9.612;2024-03-25T07:38:49;1.80;;;0.30;;
69795;SDS011;57073;45.650;9.612;2024-03-25T07:43:50;1.00;;;0.23;;
69795;SDS011;57073;45.650;9.612;2024-03-25T07:48:50;1.80;;;0.30;;
69795;SDS011;57073;45.650;9.612;2024-03-25T07:53:51;2.20;;;0.20;;
69795;SDS011;57073;45.650;9.612;2024-03-25T07:58:52;0.60;;;0.20;;
69795;SDS011;57073;45.650;9.612;2024-03-25T08:03:52;1.80;;;0.30;;
69795;SDS011;57073;45.650;9.612;2024-03-25T08:08:52;3.13;;;0.90;;
69795;SDS011;57073;45.650;9.612;2024-03-25T08:13:53;4.35;;;1.67;;
69795;SDS011;57073;45.650;9.612;2024-03-25T08:18:53;4.18;;;1.05;;
69795;SDS011;57073;45.650;9.612;2024-03-25T08:23:53;3.10;;;1.33;;
69795;SDS011;57073;45.650;9.612;2024-03-25T08:28:53;1.87;;;0.67;;
69795;SDS011;57073;45.650;9.612;2024-03-25T08:33:54;1.73;;;0.30;;
69795;SDS011;57073;45.650;9.612;2024-03-25T08:38:54;1.73;;;0.32;;
69795;SDS011;57073;45.650;9.612;2024-03-25T08:43:55;1.23;;;0.30;;
69795;SDS011;57073;45.650;9.612;2024-03-25T08:48:55;1.50;;;0.40;;
69795;SDS011;57073;45.650;9.612;2024-03-25T08:53:55;2.20;;;0.20;;
69795;SDS011;57073;45.650;9.612;2024-03-25T08:58:56;0.50;;;0.20;;
69795;SDS011;57073;45.650;9.612;2024-03-25T09:03:57;1.40;;;0.70;;
69795;SDS011;57073;45.650;9.612;2024-03-25T09:08:57;3.33;;;0.50;;
69795;SDS011;57073;45.650;9.612;2024-03-25T09:14:16;2.03;;;0.50;;
69795;SDS011;57073;45.650;9.612;2024-03-25T09:19:17;2.53;;;0.90;;
69795;SDS011;57073;45.650;9.612;2024-03-25T09:24:17;3.42;;;1.33;;
69795;SDS011;57073;45.650;9.612;2024-03-25T09:29:19;3.80;;;1.13;;
69795;SDS011;57073;45.650;9.612;2024-03-25T09:34:19;3.47;;;0.80;;
69795;SDS011;57073;45.650;9.612;2024-03-25T09:39:20;4.63;;;1.13;;
69795;SDS011;57073;45.650;9.612;2024-03-25T09:44:21;3.03;;;1.20;;
69795;SDS011;57073;45.650;9.612;2024-03-25T09:49:24;5.00;;;1.10;;
69795;SDS011;57073;45.650;9.612;2024-03-25T09:54:26;6.25;;;1.30;;
69795;SDS011;57073;45.650;9.612;2024-03-25T09:59:27;3.53;;;1.20;;
69795;SDS011;57073;45.650;9.612;2024-03-25T10:04:28;4.27;;;1.13;;
69795;SDS011;57073;45.650;9.612;2024-03-25T10:09:28;3.53;;;1.10;;
69795;SDS011;57073;45.650;9.612;2024-03-25T10:14:28;3.33;;;1.20;;
69795;SDS011;57073;45.650;9.612;2024-03-25T10:19:29;3.33;;;0.70;;
69795;SDS011;57073;45.650;9.612;2024-03-25T10:25:03;1.77;;;0.63;;
69795;SDS011;57073;45.650;9.612;2024-03-25T10:29:58;3.08;;;0.80;;
69795;SDS011;57073;45.650;9.612;2024-03-25T10:34:58;6.13;;;1.10;;
69795;SDS011;57073;45.650;9.612;2024-03-25T10:40:00;4.00;;;0.87;;
69795;SDS011;57073;45.650;9.612;2024-03-25T10:45:03;4.75;;;0.68;;
69795;SDS011;57073;45.650;9.612;2024-03-25T10:50:08;1.83;;;0.55;;
69795;SDS011;57073;45.650;9.612;2024-03-25T10:55:13;1.90;;;0.90;;
69795;SDS011;57073;45.650;9.612;2024-03-25T11:00:15;1.95;;;0.65;;
69795;SDS011;57073;45.650;9.612;2024-03-25T11:05:16;5.88;;;0.90;;
69795;SDS011;57073;45.650;9.612;2024-03-25T11:10:17;3.03;;;0.70;;
69795;SDS011;57073;45.650;9.612;2024-03-25T11:15:17;2.40;;;0.65;;
69795;SDS011;57073;45.650;9.612;2024-03-25T11:20:17;3.27;;;0.60;;
69795;SDS011;57073;45.650;9.612;2024-03-25T11:25:19;2.37;;;0.70;;
69795;SDS011;57073;45.650;9.612;2024-03-25T11:30:20;3.22;;;1.00;;
69795;SDS011;57073;45.650;9.612;2024-03-25T11:35:26;3.03;;;0.70;;
69795;SDS011;57073;45.650;9.612;2024-03-25T11:40:27;3.25;;;1.02;;
69795;SDS011;57073;45.650;9.612;2024-03-25T11:45:27;4.90;;;0.67;;
69795;SDS011;57073;45.650;9.612;2024-03-25T11:50:28;1.65;;;0.80;;
69795;SDS011;57073;45.650;9.612;2024-03-25T11:55:28;3.10;;;0.90;;
69795;SDS011;57073;45.650;9.612;2024-03-25T12:00:29;2.60;;;0.60;;
69795;SDS011;57073;45.650;9.612;2024-03-25T12:05:29;5.63;;;0.80;;
69795;SDS011;57073;45.650;9.612;2024-03-25T12:10:29;2.27;;;0.80;;
69795;SDS011;57073;45.650;9.612;2024-03-25T12:15:48;1.57;;;0.63;;
69795;SDS011;57073;45.650;9.612;2024-03-25T12:20:48;1.20;;;0.60;;
69795;SDS011;57073;45.650;9.612;2024-03-25T12:25:49;2.42;;;0.90;;
69795;SDS011;57073;45.650;9.612;2024-03-25T12:30:50;3.10;;;1.05;;
69795;SDS011;57073;45.650;9.612;2024-03-25T12:35:57;1.53;;;0.70;;
69795;SDS011;57073;45.650;9.612;2024-03-25T12:41:07;1.75;;;0.70;;
69795;SDS011;57073;45.650;9.612;2024-03-25T12:46:09;3.05;;;0.65;;
69795;SDS011;57073;45.650;9.612;2024-03-25T12:51:12;1.70;;;0.70;;
69795;SDS011;57073;45.650;9.612;2024-03-25T12:56:15;5.07;;;0.68;;
69795;SDS011;57073;45.650;9.612;2024-03-25T13:01:16;1.35;;;0.50;;
69795;SDS011;57073;45.650;9.612;2024-03-25T13:06:16;2.47;;;0.63;;
69795;SDS011;57073;45.650;9.612;2024-03-25T13:11:16;1.63;;;0.60;;
69795;SDS011;57073;45.650;9.612;2024-03-25T13:16:17;1.83;;;0.57;;
69795;SDS011;57073;45.650;9.612;2024-03-25T13:21:17;1.00;;;0.50;;
69795;SDS011;57073;45.650;9.612;2024-03-25T13:26:18;1.20;;;0.60;;
69795;SDS011;57073;45.650;9.612;2024-03-25T13:31:18;1.20;;;0.60;;
69795;SDS011;57073;45.650;9.612;2024-03-25T13:36:18;1.77;;;0.70;;
69795;SDS011;57073;45.650;9.612;2024-03-25T13:41:19;1.50;;;0.60;;
69795;SDS011;57073;45.650;9.612;2024-03-25T13:46:22;1.33;;;0.68;;
69795;SDS011;57073;45.650;9.612;2024-03-25T13:51:22;2.20;;;0.67;;
69795;SDS011;57073;45.650;9.612;2024-03-25T13:56:22;1.57;;;0.50;;
69795;SDS011;57073;45.650;9.612;2024-03-25T14:01:23;2.60;;;0.50;;
69795;SDS011;57073;45.650;9.612;2024-03-25T14:06:24;2.33;;;0.70;;
69795;SDS011;57073;45.650;9.612;2024-03-25T14:11:26;2.70;;;0.70;;
69795;SDS011;57073;45.650;9.612;2024-03-25T14:16:26;1.93;;;0.70;;
69795;SDS011;57073;45.650;9.612;2024-03-25T14:21:27;1.40;;;0.43;;
69795;SDS011;57073;45.650;9.612;2024-03-25T14:26:28;0.83;;;0.43;;
69795;SDS011;57073;45.650;9.612;2024-03-25T14:31:28;4.43;;;0.50;;
69795;SDS011;57073;45.650;9.612;2024-03-25T14:36:29;4.23;;;0.60;;
69795;SDS011;57073;45.650;9.612;2024-03-25T14:41:29;3.63;;;0.70;;
69795;SDS011;57073;45.650;9.612;2024-03-25T14:46:38;2.83;;;0.63;;
69795;SDS011;57073;45.650;9.612;2024-03-25T14:51:39;1.17;;;0.50;;
69795;SDS011;57073;45.650;9.612;2024-03-25T14:56:39;2.53;;;0.80;;
69795;SDS011;57073;45.650;9.612;2024-03-25T15:01:39;3.17;;;0.60;;
69795;SDS011;57073;45.650;9.612;2024-03-25T15:06:40;2.73;;;0.70;;
69795;SDS011;57073;45.650;9.612;2024-03-25T15:11:40;1.83;;;0.60;;
69795;SDS011;57073;45.650;9.612;2024-03-25T15:16:41;0.87;;;0.40;;
69795;SDS011;57073;45.650;9.612;2024-03-25T15:21:41;2.45;;;0.40;;
69795;SDS011;57073;45.650;9.612;2024-03-25T15:26:42;0.80;;;0.40;;
69795;SDS011;57073;45.650;9.612;2024-03-25T15:31:42;1.53;;;0.60;;
69795;SDS011;57073;45.650;9.612;2024-03-25T15:36:42;2.70;;;0.70;;
69795;SDS011;57073;45.650;9.612;2024-03-25T15:41:43;3.77;;;0.63;;
69795;SDS011;57073;45.650;9.612;2024-03-25T15:46:43;7.47;;;0.80;;
69795;SDS011;57073;45.650;9.612;2024-03-25T15:51:44;2.43;;;0.87;;
69795;SDS011;57073;45.650;9.612;2024-03-25T15:56:44;2.77;;;0.80;;
69795;SDS011;57073;45.650;9.612;2024-03-25T16:01:44;2.10;;;1.33;;
69795;SDS011;57073;45.650;9.612;2024-03-25T16:06:45;2.20;;;0.97;;
69795;SDS011;57073;45.650;9.612;2024-03-25T16:11:46;2.70;;;0.80;;
69795;SDS011;57073;45.650;9.612;2024-03-25T16:16:46;1.40;;;0.70;;
69795;SDS011;57073;45.650;9.612;2024-03-25T16:21:46;3.23;;;0.70;;
69795;SDS011;57073;45.650;9.612;2024-03-25T16:26:49;6.50;;;0.90;;
69795;SDS011;57073;45.650;9.612;2024-03-25T16:31:50;4.30;;;1.00;;
69795;SDS011;57073;45.650;9.612;2024-03-25T16:36:50;1.75;;;0.70;;
69795;SDS011;57073;45.650;9.612;2024-03-25T16:41:50;2.23;;;0.90;;
69795;SDS011;57073;45.650;9.612;2024-03-25T16:46:51;3.53;;;0.90;;
69795;SDS011;57073;45.650;9.612;2024-03-25T16:51:51;2.70;;;0.80;;
69795;SDS011;57073;45.650;9.612;2024-03-25T16:56:52;1.53;;;0.90;;
69795;SDS011;57073;45.650;9.612;2024-03-25T17:01:52;5.80;;;0.87;;
69795;SDS011;57073;45.650;9.612;2024-03-25T17:06:55;2.60;;;0.77;;
69795;SDS011;57073;45.650;9.612;2024-03-25T17:11:55;3.10;;;0.90;;
69795;SDS011;57073;45.650;9.612;2024-03-25T17:16:56;6.25;;;0.90;;
69795;SDS011;57073;45.650;9.612;2024-03-25T17:21:56;5.33;;;0.73;;
69795;SDS011;57073;45.650;9.612;2024-03-25T17:26:57;5.37;;;1.27;;
69795;SDS011;57073;45.650;9.612;2024-03-25T17:31:57;5.87;;;1.23;;
69795;SDS011;57073;45.650;9.612;2024-03-25T17:36:57;1.50;;;0.87;;
69795;SDS011;57073;45.650;9.612;2024-03-25T17:41:58;4.23;;;1.20;;
69795;SDS011;57073;45.650;9.612;2024-03-25T17:46:58;4.73;;;1.10;;
69795;SDS011;57073;45.650;9.612;2024-03-25T17:51:59;4.80;;;1.50;;
69795;SDS011;57073;45.650;9.612;2024-03-25T17:56:59;7.83;;;2.33;;
69795;SDS011;57073;45.650;9.612;2024-03-25T18:02:00;4.00;;;1.70;;
69795;SDS011;57073;45.650;9.612;2024-03-25T18:07:00;5.30;;;2.07;;
69795;SDS011;57073;45.650;9.612;2024-03-25T18:12:00;5.90;;;3.20;;
69795;SDS011;57073;45.650;9.612;2024-03-25T18:17:02;5.10;;;2.50;;
69795;SDS011;57073;45.650;9.612;2024-03-25T18:22:03;4.40;;;2.38;;
69795;SDS011;57073;45.650;9.612;2024-03-25T18:27:04;7.77;;;2.90;;
69795;SDS011;57073;45.650;9.612;2024-03-25T18:32:04;3.40;;;1.87;;
69795;SDS011;57073;45.650;9.612;2024-03-25T18:37:06;4.10;;;2.70;;
69795;SDS011;57073;45.650;9.612;2024-03-25T18:42:07;7.97;;;4.03;;
69795;SDS011;57073;45.650;9.612;2024-03-25T18:47:08;10.10;;;4.53;;
69795;SDS011;57073;45.650;9.612;2024-03-25T18:52:08;10.37;;;4.13;;
69795;SDS011;57073;45.650;9.612;2024-03-25T18:57:08;9.60;;;4.97;;
69795;SDS011;57073;45.650;9.612;2024-03-25T19:02:09;8.53;;;5.23;;
69795;SDS011;57073;45.650;9.612;2024-03-25T19:07:09;6.23;;;3.53;;
69795;SDS011;57073;45.650;9.612;2024-03-25T19:12:10;8.00;;;3.10;;
69795;SDS011;57073;45.650;9.612;2024-03-25T19:17:10;4.30;;;2.83;;
69795;SDS011;57073;45.650;9.612;2024-03-25T19:22:11;7.60;;;3.00;;
69795;SDS011;57073;45.650;9.612;2024-03-25T19:27:11;6.70;;;3.50;;
69795;SDS011;57073;45.650;9.612;2024-03-25T19:32:12;7.80;;;3.20;;
69795;SDS011;57073;45.650;9.612;2024-03-25T19:37:13;7.83;;;3.50;;
69795;SDS011;57073;45.650;9.612;2024-03-25T19:42:13;7.87;;;3.37;;
69795;SDS011;57073;45.650;9.612;2024-03-25T19:47:14;5.23;;;3.40;;
69795;SDS011;57073;45.650;9.612;2024-03-25T19:52:14;4.73;;;3.20;;
69795;SDS011;57073;45.650;9.612;2024-03-25T19:57:15;6.27;;;2.97;;
69795;SDS011;57073;45.650;9.612;2024-03-25T20:02:15;5.83;;;3.70;;
69795;SDS011;57073;45.650;9.612;2024-03-25T20:07:15;5.43;;;3.03;;
69795;SDS011;57073;45.650;9.612;2024-03-25T20:12:16;7.20;;;3.40;;
69795;SDS011;57073;45.650;9.612;2024-03-25T20:17:19;5.65;;;2.95;;
69795;SDS011;57073;45.650;9.612;2024-03-25T20:22:19;6.90;;;3.13;;
69795;SDS011;57073;45.650;9.612;2024-03-25T20:27:20;6.47;;;3.07;;
69795;SDS011;57073;45.650;9.612;2024-03-25T20:32:21;6.70;;;3.30;;
69795;SDS011;57073;45.650;9.612;2024-03-25T20:37:21;8.40;;;4.17;;
69795;SDS011;57073;45.650;9.612;2024-03-25T20:42:21;8.93;;;3.67;;
69795;SDS011;57073;45.650;9.612;2024-03-25T20:47:22;10.13;;;4.20;;
69795;SDS011;57073;45.650;9.612;2024-03-25T20:52:22;5.83;;;3.50;;
69795;SDS011;57073;45.650;9.612;2024-03-25T20:57:23;7.53;;;3.30;;
69795;SDS011;57073;45.650;9.612;2024-03-25T21:02:23;7.90;;;4.30;;
69795;SDS011;57073;45.650;9.612;2024-03-25T21:07:24;9.30;;;3.83;;
69795;SDS011;57073;45.650;9.612;2024-03-25T21:12:24;5.60;;;4.10;;
69795;SDS011;57073;45.650;9.612;2024-03-25T21:17:24;8.13;;;3.90;;
69795;SDS011;57073;45.650;9.612;2024-03-25T21:22:25;6.80;;;3.60;;
69795;SDS011;57073;45.650;9.612;2024-03-25T21:27:25;8.23;;;4.30;;
69795;SDS011;57073;45.650;9.612;2024-03-25T21:32:26;5.87;;;3.80;;
69795;SDS011;57073;45.650;9.612;2024-03-25T21:37:26;7.90;;;3.60;;
69795;SDS011;57073;45.650;9.612;2024-03-25T21:42:27;5.77;;;3.37;;
69795;SDS011;57073;45.650;9.612;2024-03-25T21:47:27;7.33;;;3.37;;
69795;SDS011;57073;45.650;9.612;2024-03-25T21:52:27;6.70;;;3.37;;
69795;SDS011;57073;45.650;9.612;2024-03-25T21:57:28;6.17;;;3.20;;
69795;SDS011;57073;45.650;9.612;2024-03-25T22:02:28;7.63;;;4.20;;
69795;SDS011;57073;45.650;9.612;2024-03-25T22:07:29;5.67;;;3.53;;
69795;SDS011;57073;45.650;9.612;2024-03-25T22:12:29;7.73;;;4.20;;
69795;SDS011;57073;45.650;9.612;2024-03-25T22:17:29;8.53;;;4.37;;
69795;SDS011;57073;45.650;9.612;2024-03-25T22:22:30;10.83;;;4.43;;
69795;SDS011;57073;45.650;9.612;2024-03-25T22:27:30;8.27;;;4.73;;
69795;SDS011;57073;45.650;9.612;2024-03-25T22:32:31;9.37;;;4.83;;
69795;SDS011;57073;45.650;9.612;2024-03-25T22:37:31;7.40;;;4.40;;
69795;SDS011;57073;45.650;9.612;2024-03-25T22:42:31;6.70;;;4.03;;
69795;SDS011;57073;45.650;9.612;2024-03-25T22:47:32;8.53;;;4.40;;
69795;SDS011;57073;45.650;9.612;2024-03-25T22:52:32;6.83;;;4.23;;
69795;SDS011;57073;45.650;9.612;2024-03-25T22:57:33;7.07;;;4.03;;
69795;SDS011;57073;45.650;9.612;2024-03-25T23:02:33;8.27;;;3.67;;
69795;SDS011;57073;45.650;9.612;2024-03-25T23:07:33;6.27;;;3.90;;
69795;SDS011;57073;45.650;9.612;2024-03-25T23:12:34;10.63;;;4.30;;
69795;SDS011;57073;45.650;9.612;2024-03-25T23:17:34;8.73;;;3.60;;
69795;SDS011;57073;45.650;9.612;2024-03-25T23:22:35;9.50;;;3.40;;
69795;SDS011;57073;45.650;9.612;2024-03-25T23:27:35;7.37;;;3.33;;
69795;SDS011;57073;45.650;9.612;2024-03-25T23:32:36;6.97;;;3.13;;
69795;SDS011;57073;45.650;9.612;2024-03-25T23:37:36;6.23;;;3.57;;
69795;SDS011;57073;45.650;9.612;2024-03-25T23:42:36;5.87;;;3.50;;
69795;SDS011;57073;45.650;9.612;2024-03-25T23:47:37;5.63;;;3.40;;
69795;SDS011;57073;45.650;9.612;2024-03-25T23:52:37;9.90;;;4.30;;
69795;SDS011;57073;45.650;9.612;2024-03-25T23:57:38;7.87;;;4.10;;
